sensor_id;sensor_type;location;lat;lon;timestamp;temperature;humidity
7218;DHT22;3650;53.580;10.094;2023-04-12T00:02:19;7.50;93.80
7218;DHT22;3650;53.580;10.094;2023-04-12T00:04:46;7.50;93.80
7218;DHT22;3650;53.580;10.094;2023-04-12T00:07:20;7.60;94.00
7218;DHT22;3650;53.580;10.094;2023-04-12T00:09:47;7.60;94.20
7218;DHT22;3650;53.580;10.094;2023-04-12T00:12:14;7.60;94.30
7218;DHT22;3650;53.580;10.094;2023-04-12T00:14:43;7.60;94.30
7218;DHT22;3650;53.580;10.094;2023-04-12T00:17:10;7.60;94.30
7218;DHT22;3650;53.580;10.094;2023-04-12T00:19:37;7.70;94.30
7218;DHT22;3650;53.580;10.094;2023-04-12T00:22:06;7.60;94.30
7218;DHT22;3650;53.580;10.094;2023-04-12T00:24:33;7.70;94.30
7218;DHT22;3650;53.580;10.094;2023-04-12T00:26:59;7.70;94.40
7218;DHT22;3650;53.580;10.094;2023-04-12T00:29:27;7.70;94.30
7218;DHT22;3650;53.580;10.094;2023-04-12T00:31:55;7.70;94.10
7218;DHT22;3650;53.580;10.094;2023-04-12T00:34:22;7.70;94.10
7218;DHT22;3650;53.580;10.094;2023-04-12T00:36:49;7.70;94.00
7218;DHT22;3650;53.580;10.094;2023-04-12T00:39:15;7.70;93.80
7218;DHT22;3650;53.580;10.094;2023-04-12T00:41:42;7.70;93.60
7218;DHT22;3650;53.580;10.094;2023-04-12T00:44:09;7.70;93.40
7218;DHT22;3650;53.580;10.094;2023-04-12T00:46:36;7.70;93.30
7218;DHT22;3650;53.580;10.094;2023-04-12T00:49:05;7.80;93.20
7218;DHT22;3650;53.580;10.094;2023-04-12T00:51:32;7.70;92.90
7218;DHT22;3650;53.580;10.094;2023-04-12T00:53:59;7.80;93.00
7218;DHT22;3650;53.580;10.094;2023-04-12T00:56:27;7.80;92.90
7218;DHT22;3650;53.580;10.094;2023-04-12T00:58:55;7.80;92.60
7218;DHT22;3650;53.580;10.094;2023-04-12T01:01:22;7.80;92.40
7218;DHT22;3650;53.580;10.094;2023-04-12T01:03:49;7.80;92.10
7218;DHT22;3650;53.580;10.094;2023-04-12T01:06:23;7.80;92.00
7218;DHT22;3650;53.580;10.094;2023-04-12T01:08:59;7.70;91.90
7218;DHT22;3650;53.580;10.094;2023-04-12T01:11:33;7.70;91.90
7218;DHT22;3650;53.580;10.094;2023-04-12T01:14:06;7.80;91.80
7218;DHT22;3650;53.580;10.094;2023-04-12T01:16:40;7.70;91.70
7218;DHT22;3650;53.580;10.094;2023-04-12T01:19:20;7.70;91.50
7218;DHT22;3650;53.580;10.094;2023-04-12T01:22:05;7.70;91.50
7218;DHT22;3650;53.580;10.094;2023-04-12T01:24:38;7.70;91.50
7218;DHT22;3650;53.580;10.094;2023-04-12T01:29:42;7.70;91.50
7218;DHT22;3650;53.580;10.094;2023-04-12T01:32:14;7.70;91.50
7218;DHT22;3650;53.580;10.094;2023-04-12T01:34:43;7.60;91.50
7218;DHT22;3650;53.580;10.094;2023-04-12T01:37:10;7.60;91.50
7218;DHT22;3650;53.580;10.094;2023-04-12T01:39:38;7.60;91.50
7218;DHT22;3650;53.580;10.094;2023-04-12T01:42:05;7.60;91.50
7218;DHT22;3650;53.580;10.094;2023-04-12T01:44:31;7.60;91.30
7218;DHT22;3650;53.580;10.094;2023-04-12T01:46:59;7.60;91.00
7218;DHT22;3650;53.580;10.094;2023-04-12T01:49:31;7.60;91.40
7218;DHT22;3650;53.580;10.094;2023-04-12T01:52:05;7.50;91.40
7218;DHT22;3650;53.580;10.094;2023-04-12T01:54:37;7.60;91.50
7218;DHT22;3650;53.580;10.094;2023-04-12T01:57:05;7.60;91.70
7218;DHT22;3650;53.580;10.094;2023-04-12T01:59:39;7.60;91.60
7218;DHT22;3650;53.580;10.094;2023-04-12T02:02:08;7.50;91.40
7218;DHT22;3650;53.580;10.094;2023-04-12T02:04:36;7.50;91.40
7218;DHT22;3650;53.580;10.094;2023-04-12T02:07:03;7.50;91.40
7218;DHT22;3650;53.580;10.094;2023-04-12T02:09:35;7.50;91.40
7218;DHT22;3650;53.580;10.094;2023-04-12T02:12:03;7.50;91.40
7218;DHT22;3650;53.580;10.094;2023-04-12T02:14:29;7.50;91.40
7218;DHT22;3650;53.580;10.094;2023-04-12T02:16:57;7.50;91.40
7218;DHT22;3650;53.580;10.094;2023-04-12T02:19:28;7.50;91.40
7218;DHT22;3650;53.580;10.094;2023-04-12T02:21:54;7.50;91.30
7218;DHT22;3650;53.580;10.094;2023-04-12T02:24:21;7.50;91.30
7218;DHT22;3650;53.580;10.094;2023-04-12T02:26:48;7.50;91.30
7218;DHT22;3650;53.580;10.094;2023-04-12T02:29:15;7.50;91.30
7218;DHT22;3650;53.580;10.094;2023-04-12T02:31:42;7.50;91.20
7218;DHT22;3650;53.580;10.094;2023-04-12T02:34:08;7.50;91.30
7218;DHT22;3650;53.580;10.094;2023-04-12T02:36:39;7.50;91.20
7218;DHT22;3650;53.580;10.094;2023-04-12T02:39:05;7.50;91.20
7218;DHT22;3650;53.580;10.094;2023-04-12T02:41:33;7.50;91.20
7218;DHT22;3650;53.580;10.094;2023-04-12T02:44:00;7.50;91.20
7218;DHT22;3650;53.580;10.094;2023-04-12T02:46:27;7.50;91.30
7218;DHT22;3650;53.580;10.094;2023-04-12T02:48:53;7.50;91.70
7218;DHT22;3650;53.580;10.094;2023-04-12T02:51:20;7.50;91.20
7218;DHT22;3650;53.580;10.094;2023-04-12T02:53:48;7.50;91.30
7218;DHT22;3650;53.580;10.094;2023-04-12T02:56:15;7.50;91.40
7218;DHT22;3650;53.580;10.094;2023-04-12T02:58:43;7.50;91.40
7218;DHT22;3650;53.580;10.094;2023-04-12T03:01:10;7.50;91.40
7218;DHT22;3650;53.580;10.094;2023-04-12T03:03:38;7.50;91.40
7218;DHT22;3650;53.580;10.094;2023-04-12T03:06:05;7.50;91.40
7218;DHT22;3650;53.580;10.094;2023-04-12T03:08:34;7.50;91.40
7218;DHT22;3650;53.580;10.094;2023-04-12T03:11:04;7.50;91.20
7218;DHT22;3650;53.580;10.094;2023-04-12T03:13:30;7.60;91.20
7218;DHT22;3650;53.580;10.094;2023-04-12T03:15:58;7.60;91.20
7218;DHT22;3650;53.580;10.094;2023-04-12T03:18:25;7.60;90.90
7218;DHT22;3650;53.580;10.094;2023-04-12T03:20:51;7.70;91.00
7218;DHT22;3650;53.580;10.094;2023-04-12T03:23:18;7.70;91.00
7218;DHT22;3650;53.580;10.094;2023-04-12T03:25:45;7.70;90.90
7218;DHT22;3650;53.580;10.094;2023-04-12T03:28:13;7.70;90.80
7218;DHT22;3650;53.580;10.094;2023-04-12T03:30:40;7.80;90.70
7218;DHT22;3650;53.580;10.094;2023-04-12T03:33:07;7.80;90.60
7218;DHT22;3650;53.580;10.094;2023-04-12T03:35:34;7.80;89.00
7218;DHT22;3650;53.580;10.094;2023-04-12T03:38:00;7.90;89.10
7218;DHT22;3650;53.580;10.094;2023-04-12T03:40:27;7.90;88.70
7218;DHT22;3650;53.580;10.094;2023-04-12T03:42:54;7.90;89.00
7218;DHT22;3650;53.580;10.094;2023-04-12T03:45:23;8.00;88.40
7218;DHT22;3650;53.580;10.094;2023-04-12T03:47:50;8.00;88.50
7218;DHT22;3650;53.580;10.094;2023-04-12T03:50:17;8.00;88.70
7218;DHT22;3650;53.580;10.094;2023-04-12T03:52:44;8.10;87.60
7218;DHT22;3650;53.580;10.094;2023-04-12T03:55:11;8.10;87.80
7218;DHT22;3650;53.580;10.094;2023-04-12T03:57:38;8.20;87.70
7218;DHT22;3650;53.580;10.094;2023-04-12T04:00:07;8.20;87.60
7218;DHT22;3650;53.580;10.094;2023-04-12T04:02:35;8.20;87.20
7218;DHT22;3650;53.580;10.094;2023-04-12T04:05:03;8.20;86.90
7218;DHT22;3650;53.580;10.094;2023-04-12T04:07:30;8.20;85.70
7218;DHT22;3650;53.580;10.094;2023-04-12T04:09:57;8.20;84.40
7218;DHT22;3650;53.580;10.094;2023-04-12T04:12:25;8.30;84.10
7218;DHT22;3650;53.580;10.094;2023-04-12T04:14:52;8.30;84.50
7218;DHT22;3650;53.580;10.094;2023-04-12T04:17:19;8.30;84.50
7218;DHT22;3650;53.580;10.094;2023-04-12T04:19:47;8.30;84.60
7218;DHT22;3650;53.580;10.094;2023-04-12T04:22:14;8.40;84.40
7218;DHT22;3650;53.580;10.094;2023-04-12T04:24:42;8.40;83.20
7218;DHT22;3650;53.580;10.094;2023-04-12T04:27:09;8.40;82.00
7218;DHT22;3650;53.580;10.094;2023-04-12T04:29:35;8.40;82.10
7218;DHT22;3650;53.580;10.094;2023-04-12T04:32:08;8.40;82.20
7218;DHT22;3650;53.580;10.094;2023-04-12T04:34:35;8.40;82.00
7218;DHT22;3650;53.580;10.094;2023-04-12T04:37:04;8.40;80.20
7218;DHT22;3650;53.580;10.094;2023-04-12T04:39:31;8.40;80.80
7218;DHT22;3650;53.580;10.094;2023-04-12T04:41:57;8.40;80.90
7218;DHT22;3650;53.580;10.094;2023-04-12T04:44:24;8.40;80.70
7218;DHT22;3650;53.580;10.094;2023-04-12T04:46:51;8.40;80.40
7218;DHT22;3650;53.580;10.094;2023-04-12T04:49:18;8.40;80.20
7218;DHT22;3650;53.580;10.094;2023-04-12T04:51:44;8.40;80.10
7218;DHT22;3650;53.580;10.094;2023-04-12T04:54:12;8.40;79.30
7218;DHT22;3650;53.580;10.094;2023-04-12T04:56:41;8.40;79.50
7218;DHT22;3650;53.580;10.094;2023-04-12T04:59:08;8.40;79.30
7218;DHT22;3650;53.580;10.094;2023-04-12T05:01:34;8.40;78.10
7218;DHT22;3650;53.580;10.094;2023-04-12T05:04:02;8.40;77.50
7218;DHT22;3650;53.580;10.094;2023-04-12T05:06:29;8.40;78.10
7218;DHT22;3650;53.580;10.094;2023-04-12T05:08:55;8.40;77.90
7218;DHT22;3650;53.580;10.094;2023-04-12T05:11:24;8.40;78.00
7218;DHT22;3650;53.580;10.094;2023-04-12T05:13:50;8.40;76.20
7218;DHT22;3650;53.580;10.094;2023-04-12T05:16:17;8.40;76.70
7218;DHT22;3650;53.580;10.094;2023-04-12T05:18:44;8.40;76.20
7218;DHT22;3650;53.580;10.094;2023-04-12T05:21:11;8.40;76.20
7218;DHT22;3650;53.580;10.094;2023-04-12T05:23:41;8.40;75.60
7218;DHT22;3650;53.580;10.094;2023-04-12T05:26:08;8.40;76.00
7218;DHT22;3650;53.580;10.094;2023-04-12T05:28:37;8.40;75.60
7218;DHT22;3650;53.580;10.094;2023-04-12T05:31:04;8.40;75.60
7218;DHT22;3650;53.580;10.094;2023-04-12T05:33:31;8.40;75.50
7218;DHT22;3650;53.580;10.094;2023-04-12T05:35:59;8.40;75.30
7218;DHT22;3650;53.580;10.094;2023-04-12T05:38:26;8.40;75.30
7218;DHT22;3650;53.580;10.094;2023-04-12T05:40:52;8.40;75.30
7218;DHT22;3650;53.580;10.094;2023-04-12T05:43:19;8.40;73.60
7218;DHT22;3650;53.580;10.094;2023-04-12T05:45:49;8.40;74.10
7218;DHT22;3650;53.580;10.094;2023-04-12T05:48:16;8.40;75.30
7218;DHT22;3650;53.580;10.094;2023-04-12T05:50:49;8.40;75.70
7218;DHT22;3650;53.580;10.094;2023-04-12T05:53:16;8.40;75.80
7218;DHT22;3650;53.580;10.094;2023-04-12T05:55:43;8.40;75.80
7218;DHT22;3650;53.580;10.094;2023-04-12T05:58:10;8.40;75.90
7218;DHT22;3650;53.580;10.094;2023-04-12T06:00:38;8.40;76.00
7218;DHT22;3650;53.580;10.094;2023-04-12T06:03:08;8.40;75.50
7218;DHT22;3650;53.580;10.094;2023-04-12T06:05:35;8.40;72.00
7218;DHT22;3650;53.580;10.094;2023-04-12T06:08:01;8.50;70.50
7218;DHT22;3650;53.580;10.094;2023-04-12T06:10:30;8.50;71.30
7218;DHT22;3650;53.580;10.094;2023-04-12T06:12:57;8.50;72.30
7218;DHT22;3650;53.580;10.094;2023-04-12T06:15:23;8.50;71.10
7218;DHT22;3650;53.580;10.094;2023-04-12T06:17:50;8.60;71.20
7218;DHT22;3650;53.580;10.094;2023-04-12T06:20:19;8.60;71.60
7218;DHT22;3650;53.580;10.094;2023-04-12T06:22:46;8.70;71.60
7218;DHT22;3650;53.580;10.094;2023-04-12T06:25:12;8.70;71.60
7218;DHT22;3650;53.580;10.094;2023-04-12T06:27:40;8.70;70.70
7218;DHT22;3650;53.580;10.094;2023-04-12T06:30:08;8.80;70.70
7218;DHT22;3650;53.580;10.094;2023-04-12T06:32:35;8.80;69.00
7218;DHT22;3650;53.580;10.094;2023-04-12T06:35:03;8.90;67.20
7218;DHT22;3650;53.580;10.094;2023-04-12T06:37:31;8.90;66.30
7218;DHT22;3650;53.580;10.094;2023-04-12T06:39:58;8.90;66.20
7218;DHT22;3650;53.580;10.094;2023-04-12T06:42:25;9.00;66.20
7218;DHT22;3650;53.580;10.094;2023-04-12T06:44:51;9.00;61.60
7218;DHT22;3650;53.580;10.094;2023-04-12T06:47:19;9.10;62.20
7218;DHT22;3650;53.580;10.094;2023-04-12T06:49:47;9.10;61.50
7218;DHT22;3650;53.580;10.094;2023-04-12T06:52:16;9.20;60.40
7218;DHT22;3650;53.580;10.094;2023-04-12T06:54:44;9.20;59.70
7218;DHT22;3650;53.580;10.094;2023-04-12T06:57:11;9.20;60.70
7218;DHT22;3650;53.580;10.094;2023-04-12T06:59:38;9.30;58.70
7218;DHT22;3650;53.580;10.094;2023-04-12T07:02:06;9.30;58.70
7218;DHT22;3650;53.580;10.094;2023-04-12T07:04:32;9.40;57.50
7218;DHT22;3650;53.580;10.094;2023-04-12T07:06:59;9.40;57.90
7218;DHT22;3650;53.580;10.094;2023-04-12T07:09:26;9.50;58.40
7218;DHT22;3650;53.580;10.094;2023-04-12T07:11:54;9.50;58.60
7218;DHT22;3650;53.580;10.094;2023-04-12T07:14:21;9.50;59.00
7218;DHT22;3650;53.580;10.094;2023-04-12T07:16:48;9.50;57.20
7218;DHT22;3650;53.580;10.094;2023-04-12T07:19:14;9.70;56.50
7218;DHT22;3650;53.580;10.094;2023-04-12T07:21:41;9.70;56.30
7218;DHT22;3650;53.580;10.094;2023-04-12T07:24:08;9.70;56.50
7218;DHT22;3650;53.580;10.094;2023-04-12T07:26:35;9.80;58.10
7218;DHT22;3650;53.580;10.094;2023-04-12T07:29:03;9.90;55.70
7218;DHT22;3650;53.580;10.094;2023-04-12T07:31:30;9.90;55.40
7218;DHT22;3650;53.580;10.094;2023-04-12T07:33:57;9.90;54.80
7218;DHT22;3650;53.580;10.094;2023-04-12T07:36:23;10.00;53.60
7218;DHT22;3650;53.580;10.094;2023-04-12T07:38:51;10.00;53.30
7218;DHT22;3650;53.580;10.094;2023-04-12T07:41:20;10.10;55.10
7218;DHT22;3650;53.580;10.094;2023-04-12T07:43:47;10.10;56.90
7218;DHT22;3650;53.580;10.094;2023-04-12T07:46:15;10.20;59.80
7218;DHT22;3650;53.580;10.094;2023-04-12T07:48:42;10.20;58.00
7218;DHT22;3650;53.580;10.094;2023-04-12T07:51:09;10.30;54.10
7218;DHT22;3650;53.580;10.094;2023-04-12T07:53:36;10.40;54.50
7218;DHT22;3650;53.580;10.094;2023-04-12T07:56:03;10.40;53.30
7218;DHT22;3650;53.580;10.094;2023-04-12T07:58:32;10.40;52.30
7218;DHT22;3650;53.580;10.094;2023-04-12T08:00:59;10.50;51.20
7218;DHT22;3650;53.580;10.094;2023-04-12T08:03:27;10.60;49.60
7218;DHT22;3650;53.580;10.094;2023-04-12T08:05:54;10.60;49.60
7218;DHT22;3650;53.580;10.094;2023-04-12T08:08:21;10.60;49.70
7218;DHT22;3650;53.580;10.094;2023-04-12T08:10:49;10.70;48.80
7218;DHT22;3650;53.580;10.094;2023-04-12T08:13:16;10.70;49.00
7218;DHT22;3650;53.580;10.094;2023-04-12T08:15:43;10.70;47.20
7218;DHT22;3650;53.580;10.094;2023-04-12T08:18:11;10.70;46.90
7218;DHT22;3650;53.580;10.094;2023-04-12T08:20:39;10.80;46.70
7218;DHT22;3650;53.580;10.094;2023-04-12T08:23:08;10.80;46.20
7218;DHT22;3650;53.580;10.094;2023-04-12T08:25:36;10.80;45.10
7218;DHT22;3650;53.580;10.094;2023-04-12T08:28:03;10.80;45.60
7218;DHT22;3650;53.580;10.094;2023-04-12T08:30:31;10.80;45.00
7218;DHT22;3650;53.580;10.094;2023-04-12T08:32:58;10.80;44.20
7218;DHT22;3650;53.580;10.094;2023-04-12T08:35:25;10.80;44.30
7218;DHT22;3650;53.580;10.094;2023-04-12T08:37:53;10.80;46.70
7218;DHT22;3650;53.580;10.094;2023-04-12T08:40:20;10.90;45.60
7218;DHT22;3650;53.580;10.094;2023-04-12T08:42:47;10.90;44.30
7218;DHT22;3650;53.580;10.094;2023-04-12T08:45:14;10.90;43.40
7218;DHT22;3650;53.580;10.094;2023-04-12T08:47:42;10.90;43.90
7218;DHT22;3650;53.580;10.094;2023-04-12T08:50:11;10.90;44.40
7218;DHT22;3650;53.580;10.094;2023-04-12T08:52:39;10.90;43.80
7218;DHT22;3650;53.580;10.094;2023-04-12T08:55:08;10.90;43.40
7218;DHT22;3650;53.580;10.094;2023-04-12T08:57:36;11.00;44.50
7218;DHT22;3650;53.580;10.094;2023-04-12T09:00:07;10.90;46.20
7218;DHT22;3650;53.580;10.094;2023-04-12T09:02:35;11.00;46.20
7218;DHT22;3650;53.580;10.094;2023-04-12T09:05:02;11.00;45.30
7218;DHT22;3650;53.580;10.094;2023-04-12T09:07:30;11.00;45.50
7218;DHT22;3650;53.580;10.094;2023-04-12T09:09:57;11.00;45.50
7218;DHT22;3650;53.580;10.094;2023-04-12T09:12:26;11.10;44.50
7218;DHT22;3650;53.580;10.094;2023-04-12T09:15:05;11.10;43.80
7218;DHT22;3650;53.580;10.094;2023-04-12T09:17:33;11.10;43.90
7218;DHT22;3650;53.580;10.094;2023-04-12T09:20:22;11.10;44.50
7218;DHT22;3650;53.580;10.094;2023-04-12T09:22:51;11.10;44.40
7218;DHT22;3650;53.580;10.094;2023-04-12T09:25:35;11.20;43.70
7218;DHT22;3650;53.580;10.094;2023-04-12T09:28:16;11.20;44.70
7218;DHT22;3650;53.580;10.094;2023-04-12T09:30:44;11.20;45.10
7218;DHT22;3650;53.580;10.094;2023-04-12T09:33:16;11.10;45.80
7218;DHT22;3650;53.580;10.094;2023-04-12T09:35:43;11.20;45.10
7218;DHT22;3650;53.580;10.094;2023-04-12T09:38:10;11.20;44.90
7218;DHT22;3650;53.580;10.094;2023-04-12T09:40:37;11.30;45.10
7218;DHT22;3650;53.580;10.094;2023-04-12T09:43:06;11.30;45.00
7218;DHT22;3650;53.580;10.094;2023-04-12T09:45:35;11.30;44.80
7218;DHT22;3650;53.580;10.094;2023-04-12T09:48:03;11.40;45.70
7218;DHT22;3650;53.580;10.094;2023-04-12T09:50:31;11.40;45.60
7218;DHT22;3650;53.580;10.094;2023-04-12T09:52:59;11.40;45.60
7218;DHT22;3650;53.580;10.094;2023-04-12T09:55:28;11.50;46.20
7218;DHT22;3650;53.580;10.094;2023-04-12T09:57:56;11.50;45.10
7218;DHT22;3650;53.580;10.094;2023-04-12T10:00:29;11.50;45.90
7218;DHT22;3650;53.580;10.094;2023-04-12T10:02:59;11.60;45.70
7218;DHT22;3650;53.580;10.094;2023-04-12T10:05:26;11.60;45.30
7218;DHT22;3650;53.580;10.094;2023-04-12T10:07:52;11.70;44.00
7218;DHT22;3650;53.580;10.094;2023-04-12T10:10:20;11.60;44.10
7218;DHT22;3650;53.580;10.094;2023-04-12T10:12:47;11.70;44.00
7218;DHT22;3650;53.580;10.094;2023-04-12T10:15:15;11.70;44.50
7218;DHT22;3650;53.580;10.094;2023-04-12T10:17:45;11.70;45.60
7218;DHT22;3650;53.580;10.094;2023-04-12T10:20:13;11.70;44.80
7218;DHT22;3650;53.580;10.094;2023-04-12T10:22:40;11.80;44.30
7218;DHT22;3650;53.580;10.094;2023-04-12T10:25:12;11.80;44.20
7218;DHT22;3650;53.580;10.094;2023-04-12T10:27:41;11.80;44.40
7218;DHT22;3650;53.580;10.094;2023-04-12T10:30:21;11.80;44.80
7218;DHT22;3650;53.580;10.094;2023-04-12T10:33:10;11.90;45.10
7218;DHT22;3650;53.580;10.094;2023-04-12T10:36:05;11.90;44.60
7218;DHT22;3650;53.580;10.094;2023-04-12T10:38:44;11.90;45.20
7218;DHT22;3650;53.580;10.094;2023-04-12T10:41:18;11.90;45.60
7218;DHT22;3650;53.580;10.094;2023-04-12T10:43:46;12.00;46.20
7218;DHT22;3650;53.580;10.094;2023-04-12T10:46:47;12.00;46.00
7218;DHT22;3650;53.580;10.094;2023-04-12T10:49:17;12.00;45.00
7218;DHT22;3650;53.580;10.094;2023-04-12T10:52:09;12.00;46.40
7218;DHT22;3650;53.580;10.094;2023-04-12T10:54:37;12.00;47.10
7218;DHT22;3650;53.580;10.094;2023-04-12T10:57:04;12.00;47.30
7218;DHT22;3650;53.580;10.094;2023-04-12T10:59:51;12.10;47.00
7218;DHT22;3650;53.580;10.094;2023-04-12T11:02:21;12.10;47.80
7218;DHT22;3650;53.580;10.094;2023-04-12T11:05:05;12.10;47.50
7218;DHT22;3650;53.580;10.094;2023-04-12T11:07:38;12.10;48.50
7218;DHT22;3650;53.580;10.094;2023-04-12T11:10:11;12.10;48.60
7218;DHT22;3650;53.580;10.094;2023-04-12T11:12:40;12.10;49.70
7218;DHT22;3650;53.580;10.094;2023-04-12T11:15:11;12.10;50.60
7218;DHT22;3650;53.580;10.094;2023-04-12T11:17:38;12.10;51.80
7218;DHT22;3650;53.580;10.094;2023-04-12T11:20:09;12.10;52.60
7218;DHT22;3650;53.580;10.094;2023-04-12T11:22:37;12.00;55.30
7218;DHT22;3650;53.580;10.094;2023-04-12T11:25:05;12.00;57.40
7218;DHT22;3650;53.580;10.094;2023-04-12T11:27:32;11.90;60.50
7218;DHT22;3650;53.580;10.094;2023-04-12T11:30:03;11.90;61.60
7218;DHT22;3650;53.580;10.094;2023-04-12T11:32:30;11.90;62.60
7218;DHT22;3650;53.580;10.094;2023-04-12T11:34:59;11.80;65.00
7218;DHT22;3650;53.580;10.094;2023-04-12T11:37:29;11.80;66.60
7218;DHT22;3650;53.580;10.094;2023-04-12T11:39:57;11.80;69.50
7218;DHT22;3650;53.580;10.094;2023-04-12T11:42:25;11.70;70.00
7218;DHT22;3650;53.580;10.094;2023-04-12T11:44:52;11.70;72.60
7218;DHT22;3650;53.580;10.094;2023-04-12T11:47:20;11.70;73.30
7218;DHT22;3650;53.580;10.094;2023-04-12T11:49:49;11.60;74.80
7218;DHT22;3650;53.580;10.094;2023-04-12T11:52:17;11.60;73.20
7218;DHT22;3650;53.580;10.094;2023-04-12T11:54:47;11.60;74.10
7218;DHT22;3650;53.580;10.094;2023-04-12T11:57:15;11.60;74.80
7218;DHT22;3650;53.580;10.094;2023-04-12T11:59:43;11.60;74.90
7218;DHT22;3650;53.580;10.094;2023-04-12T12:02:11;11.60;77.70
7218;DHT22;3650;53.580;10.094;2023-04-12T12:04:40;11.60;77.60
7218;DHT22;3650;53.580;10.094;2023-04-12T12:07:09;11.50;79.60
7218;DHT22;3650;53.580;10.094;2023-04-12T12:09:36;11.60;80.00
7218;DHT22;3650;53.580;10.094;2023-04-12T12:12:06;11.50;80.50
7218;DHT22;3650;53.580;10.094;2023-04-12T12:14:33;11.50;82.70
7218;DHT22;3650;53.580;10.094;2023-04-12T12:17:02;11.50;82.50
7218;DHT22;3650;53.580;10.094;2023-04-12T12:19:36;11.50;83.30
7218;DHT22;3650;53.580;10.094;2023-04-12T12:22:09;11.50;84.70
7218;DHT22;3650;53.580;10.094;2023-04-12T12:24:36;11.50;85.60
7218;DHT22;3650;53.580;10.094;2023-04-12T12:27:04;11.50;86.10
7218;DHT22;3650;53.580;10.094;2023-04-12T12:29:35;11.50;87.00
7218;DHT22;3650;53.580;10.094;2023-04-12T12:32:08;11.50;88.20
7218;DHT22;3650;53.580;10.094;2023-04-12T12:34:35;11.50;89.80
7218;DHT22;3650;53.580;10.094;2023-04-12T12:37:02;11.50;90.20
7218;DHT22;3650;53.580;10.094;2023-04-12T12:39:32;11.50;90.60
7218;DHT22;3650;53.580;10.094;2023-04-12T12:42:00;11.50;90.90
7218;DHT22;3650;53.580;10.094;2023-04-12T12:44:31;11.50;91.10
7218;DHT22;3650;53.580;10.094;2023-04-12T12:46:59;11.40;91.60
7218;DHT22;3650;53.580;10.094;2023-04-12T12:49:26;11.40;92.00
7218;DHT22;3650;53.580;10.094;2023-04-12T12:51:54;11.40;92.00
7218;DHT22;3650;53.580;10.094;2023-04-12T12:54:21;11.40;92.00
7218;DHT22;3650;53.580;10.094;2023-04-12T12:56:47;11.40;92.50
7218;DHT22;3650;53.580;10.094;2023-04-12T12:59:14;11.40;92.50
7218;DHT22;3650;53.580;10.094;2023-04-12T13:01:42;11.40;92.80
7218;DHT22;3650;53.580;10.094;2023-04-12T13:04:09;11.40;92.80
7218;DHT22;3650;53.580;10.094;2023-04-12T13:06:36;11.40;93.00
7218;DHT22;3650;53.580;10.094;2023-04-12T13:09:03;11.40;93.20
7218;DHT22;3650;53.580;10.094;2023-04-12T13:11:31;11.40;93.20
7218;DHT22;3650;53.580;10.094;2023-04-12T13:13:58;11.40;93.30
7218;DHT22;3650;53.580;10.094;2023-04-12T13:16:24;11.40;93.40
7218;DHT22;3650;53.580;10.094;2023-04-12T13:18:52;11.40;93.30
7218;DHT22;3650;53.580;10.094;2023-04-12T13:21:19;11.40;93.50
7218;DHT22;3650;53.580;10.094;2023-04-12T13:23:46;11.40;93.80
7218;DHT22;3650;53.580;10.094;2023-04-12T13:26:13;11.40;93.90
7218;DHT22;3650;53.580;10.094;2023-04-12T13:28:40;11.50;94.10
7218;DHT22;3650;53.580;10.094;2023-04-12T13:31:06;11.50;94.30
7218;DHT22;3650;53.580;10.094;2023-04-12T13:33:33;11.50;94.60
7218;DHT22;3650;53.580;10.094;2023-04-12T13:36:01;11.50;94.80
7218;DHT22;3650;53.580;10.094;2023-04-12T13:38:28;11.50;94.80
7218;DHT22;3650;53.580;10.094;2023-04-12T13:40:55;11.50;94.60
7218;DHT22;3650;53.580;10.094;2023-04-12T13:43:22;11.50;94.30
7218;DHT22;3650;53.580;10.094;2023-04-12T13:45:48;11.50;94.20
7218;DHT22;3650;53.580;10.094;2023-04-12T13:48:16;11.50;94.20
7218;DHT22;3650;53.580;10.094;2023-04-12T13:50:44;11.50;94.00
7218;DHT22;3650;53.580;10.094;2023-04-12T13:53:12;11.50;93.90
7218;DHT22;3650;53.580;10.094;2023-04-12T13:55:38;11.50;93.80
7218;DHT22;3650;53.580;10.094;2023-04-12T13:58:05;11.50;93.70
7218;DHT22;3650;53.580;10.094;2023-04-12T14:00:32;11.50;93.90
7218;DHT22;3650;53.580;10.094;2023-04-12T14:02:59;11.50;93.80
7218;DHT22;3650;53.580;10.094;2023-04-12T14:05:26;11.50;93.80
7218;DHT22;3650;53.580;10.094;2023-04-12T14:07:53;11.50;93.60
7218;DHT22;3650;53.580;10.094;2023-04-12T14:10:21;11.50;93.80
7218;DHT22;3650;53.580;10.094;2023-04-12T14:12:48;11.50;93.90
7218;DHT22;3650;53.580;10.094;2023-04-12T14:15:15;11.50;93.90
7218;DHT22;3650;53.580;10.094;2023-04-12T14:17:42;11.50;94.10
7218;DHT22;3650;53.580;10.094;2023-04-12T14:20:09;11.50;94.10
7218;DHT22;3650;53.580;10.094;2023-04-12T14:22:37;11.40;94.00
7218;DHT22;3650;53.580;10.094;2023-04-12T14:25:04;11.50;94.00
7218;DHT22;3650;53.580;10.094;2023-04-12T14:27:32;11.50;94.10
7218;DHT22;3650;53.580;10.094;2023-04-12T14:30:00;11.50;94.40
7218;DHT22;3650;53.580;10.094;2023-04-12T14:32:27;11.40;94.50
7218;DHT22;3650;53.580;10.094;2023-04-12T14:34:53;11.40;94.60
7218;DHT22;3650;53.580;10.094;2023-04-12T14:37:20;11.50;95.10
7218;DHT22;3650;53.580;10.094;2023-04-12T14:39:47;11.40;95.30
7218;DHT22;3650;53.580;10.094;2023-04-12T14:42:14;11.50;95.40
7218;DHT22;3650;53.580;10.094;2023-04-12T14:44:42;11.40;95.40
7218;DHT22;3650;53.580;10.094;2023-04-12T14:47:09;11.40;95.70
7218;DHT22;3650;53.580;10.094;2023-04-12T14:49:35;11.40;95.90
7218;DHT22;3650;53.580;10.094;2023-04-12T14:52:02;11.40;96.10
7218;DHT22;3650;53.580;10.094;2023-04-12T14:54:31;11.40;96.30
7218;DHT22;3650;53.580;10.094;2023-04-12T14:56:58;11.50;96.30
7218;DHT22;3650;53.580;10.094;2023-04-12T14:59:25;11.50;96.40
7218;DHT22;3650;53.580;10.094;2023-04-12T15:01:53;11.40;96.10
7218;DHT22;3650;53.580;10.094;2023-04-12T15:04:20;11.40;96.30
7218;DHT22;3650;53.580;10.094;2023-04-12T15:06:47;11.40;96.60
7218;DHT22;3650;53.580;10.094;2023-04-12T15:09:14;11.40;96.70
7218;DHT22;3650;53.580;10.094;2023-04-12T15:11:42;11.40;96.60
7218;DHT22;3650;53.580;10.094;2023-04-12T15:14:11;11.40;96.70
7218;DHT22;3650;53.580;10.094;2023-04-12T15:16:42;11.40;96.80
7218;DHT22;3650;53.580;10.094;2023-04-12T15:19:12;11.50;96.80
7218;DHT22;3650;53.580;10.094;2023-04-12T15:21:38;11.40;96.70
7218;DHT22;3650;53.580;10.094;2023-04-12T15:24:05;11.50;96.90
7218;DHT22;3650;53.580;10.094;2023-04-12T15:26:33;11.40;96.90
7218;DHT22;3650;53.580;10.094;2023-04-12T15:29:00;11.40;96.80
7218;DHT22;3650;53.580;10.094;2023-04-12T15:31:28;11.50;96.90
7218;DHT22;3650;53.580;10.094;2023-04-12T15:33:55;11.40;96.80
7218;DHT22;3650;53.580;10.094;2023-04-12T15:36:23;11.40;96.80
7218;DHT22;3650;53.580;10.094;2023-04-12T15:38:58;11.40;96.90
7218;DHT22;3650;53.580;10.094;2023-04-12T15:41:24;11.40;97.00
7218;DHT22;3650;53.580;10.094;2023-04-12T15:43:51;11.50;97.10
7218;DHT22;3650;53.580;10.094;2023-04-12T15:46:18;11.50;97.30
7218;DHT22;3650;53.580;10.094;2023-04-12T15:48:45;11.50;97.40
7218;DHT22;3650;53.580;10.094;2023-04-12T15:51:12;11.50;97.40
7218;DHT22;3650;53.580;10.094;2023-04-12T15:53:40;11.50;97.30
7218;DHT22;3650;53.580;10.094;2023-04-12T15:56:09;11.50;97.20
7218;DHT22;3650;53.580;10.094;2023-04-12T15:58:38;11.50;97.70
7218;DHT22;3650;53.580;10.094;2023-04-12T16:01:05;11.50;97.30
7218;DHT22;3650;53.580;10.094;2023-04-12T16:03:32;11.50;97.10